sensor_id;sensor_type;location;lat;lon;timestamp;pressure;altitude;pressure_sealevel;temperature;humidity
9277;BME280;4676;42.678;23.244;2023-01-25T00:01:53;95145.25;;;1.09;100.00
9277;BME280;4676;42.678;23.244;2023-01-25T00:04:20;95141.94;;;1.07;100.00
9277;BME280;4676;42.678;23.244;2023-01-25T00:06:48;95144.50;;;1.12;100.00
9277;BME280;4676;42.678;23.244;2023-01-25T00:09:16;95147.00;;;1.13;100.00
9277;BME280;4676;42.678;23.244;2023-01-25T00:11:44;95140.31;;;1.11;100.00
9277;BME280;4676;42.678;23.244;2023-01-25T00:14:11;95140.34;;;1.12;100.00
9277;BME280;4676;42.678;23.244;2023-01-25T00:16:39;95140.94;;;0.94;100.00
9277;BME280;4676;42.678;23.244;2023-01-25T00:19:07;95140.25;;;1.05;100.00
9277;BME280;4676;42.678;23.244;2023-01-25T00:21:35;95144.38;;;1.06;100.00
9277;BME280;4676;42.678;23.244;2023-01-25T00:24:02;95142.00;;;1.12;100.00
9277;BME280;4676;42.678;23.244;2023-01-25T00:26:30;95148.72;;;1.16;100.00
9277;BME280;4676;42.678;23.244;2023-01-25T00:28:57;95146.78;;;0.95;100.00
9277;BME280;4676;42.678;23.244;2023-01-25T00:31:36;95150.19;;;1.03;100.00
9277;BME280;4676;42.678;23.244;2023-01-25T00:34:17;95147.59;;;0.94;100.00
9277;BME280;4676;42.678;23.244;2023-01-25T00:36:56;95143.38;;;0.90;100.00
9277;BME280;4676;42.678;23.244;2023-01-25T00:39:25;95138.19;;;0.76;100.00
9277;BME280;4676;42.678;23.244;2023-01-25T00:41:52;95148.28;;;0.85;100.00
9277;BME280;4676;42.678;23.244;2023-01-25T00:44:19;95136.66;;;0.84;100.00
9277;BME280;4676;42.678;23.244;2023-01-25T00:46:46;95149.25;;;0.93;100.00
9277;BME280;4676;42.678;23.244;2023-01-25T00:49:19;95141.84;;;1.02;100.00
9277;BME280;4676;42.678;23.244;2023-01-25T00:51:46;95119.97;;;0.80;100.00
9277;BME280;4676;42.678;23.244;2023-01-25T00:54:14;95151.06;;;1.07;100.00
9277;BME280;4676;42.678;23.244;2023-01-25T00:56:41;95150.31;;;1.12;100.00
9277;BME280;4676;42.678;23.244;2023-01-25T00:59:08;95150.91;;;0.94;100.00
9277;BME280;4676;42.678;23.244;2023-01-25T01:01:35;95148.94;;;0.72;100.00
9277;BME280;4676;42.678;23.244;2023-01-25T01:04:02;95145.63;;;0.75;100.00
9277;BME280;4676;42.678;23.244;2023-01-25T01:06:29;95148.22;;;0.79;100.00
9277;BME280;4676;42.678;23.244;2023-01-25T01:08:55;95144.09;;;0.83;100.00
9277;BME280;4676;42.678;23.244;2023-01-25T01:11:23;95150.00;;;0.88;100.00
9277;BME280;4676;42.678;23.244;2023-01-25T01:13:50;95147.38;;;0.79;100.00
9277;BME280;4676;42.678;23.244;2023-01-25T01:16:17;95149.81;;;0.76;100.00
9277;BME280;4676;42.678;23.244;2023-01-25T01:18:44;95149.84;;;0.77;100.00
9277;BME280;4676;42.678;23.244;2023-01-25T01:21:12;95146.56;;;0.81;100.00
9277;BME280;4676;42.678;23.244;2023-01-25T01:23:39;95145.81;;;0.87;100.00
9277;BME280;4676;42.678;23.244;2023-01-25T01:26:08;95124.03;;;0.75;100.00
9277;BME280;4676;42.678;23.244;2023-01-25T01:28:37;95133.41;;;0.91;100.00
9277;BME280;4676;42.678;23.244;2023-01-25T01:31:07;95127.56;;;0.89;100.00
9277;BME280;4676;42.678;23.244;2023-01-25T01:33:34;95128.38;;;0.88;100.00
9277;BME280;4676;42.678;23.244;2023-01-25T01:36:06;95122.53;;;0.86;100.00
9277;BME280;4676;42.678;23.244;2023-01-25T01:38:32;95124.25;;;0.92;100.00
9277;BME280;4676;42.678;23.244;2023-01-25T01:40:59;95121.69;;;0.84;100.00
9277;BME280;4676;42.678;23.244;2023-01-25T01:43:26;95123.41;;;0.90;100.00
9277;BME280;4676;42.678;23.244;2023-01-25T01:45:58;95124.91;;;0.79;100.00
9277;BME280;4676;42.678;23.244;2023-01-25T01:48:32;95122.56;;;0.88;100.00
9277;BME280;4676;42.678;23.244;2023-01-25T01:51:02;95123.34;;;0.84;100.00
9277;BME280;4676;42.678;23.244;2023-01-25T01:53:32;95113.47;;;0.93;100.00
9277;BME280;4676;42.678;23.244;2023-01-25T01:56:01;95114.19;;;0.84;100.00
9277;BME280;4676;42.678;23.244;2023-01-25T01:58:30;95125.91;;;0.90;100.00
9277;BME280;4676;42.678;23.244;2023-01-25T02:00:59;95121.81;;;0.96;100.00
9277;BME280;4676;42.678;23.244;2023-01-25T02:03:26;95126.81;;;0.96;100.00
9277;BME280;4676;42.678;23.244;2023-01-25T02:05:57;95126.72;;;0.87;100.00
9277;BME280;4676;42.678;23.244;2023-01-25T02:08:27;95125.72;;;0.78;100.00
9277;BME280;4676;42.678;23.244;2023-01-25T02:10:56;95124.22;;;0.87;100.00
9277;BME280;4676;42.678;23.244;2023-01-25T02:13:23;95119.19;;;0.84;100.00
9277;BME280;4676;42.678;23.244;2023-01-25T02:15:51;95120.81;;;0.82;100.00
9277;BME280;4676;42.678;23.244;2023-01-25T02:18:22;95127.69;;;0.98;100.00
9277;BME280;4676;42.678;23.244;2023-01-25T02:20:51;95121.63;;;0.81;100.00
9277;BME280;4676;42.678;23.244;2023-01-25T02:23:23;95121.56;;;0.78;100.00
9277;BME280;4676;42.678;23.244;2023-01-25T02:25:53;95124.88;;;0.76;100.00
9277;BME280;4676;42.678;23.244;2023-01-25T02:28:23;95119.09;;;0.78;100.00
9277;BME280;4676;42.678;23.244;2023-01-25T02:30:51;95121.56;;;0.77;100.00
9277;BME280;4676;42.678;23.244;2023-01-25T02:33:21;95101.28;;;0.54;100.00
9277;BME280;4676;42.678;23.244;2023-01-25T02:35:51;95122.19;;;0.62;100.00
9277;BME280;4676;42.678;23.244;2023-01-25T02:38:20;95118.00;;;0.61;100.00
9277;BME280;4676;42.678;23.244;2023-01-25T02:40:54;95114.41;;;0.41;100.00
9277;BME280;4676;42.678;23.244;2023-01-25T02:43:22;95108.47;;;0.33;100.00
9277;BME280;4676;42.678;23.244;2023-01-25T02:45:55;95111.03;;;0.37;100.00
9277;BME280;4676;42.678;23.244;2023-01-25T02:48:23;95108.94;;;0.11;100.00
9277;BME280;4676;42.678;23.244;2023-01-25T02:50:50;95104.84;;;0.14;100.00
9277;BME280;4676;42.678;23.244;2023-01-25T02:53:17;95113.31;;;0.24;100.00
9277;BME280;4676;42.678;23.244;2023-01-25T02:55:44;95111.59;;;0.20;100.00
9277;BME280;4676;42.678;23.244;2023-01-25T02:58:12;95109.97;;;0.23;100.00
9277;BME280;4676;42.678;23.244;2023-01-25T03:00:38;95114.97;;;0.25;100.00
9277;BME280;4676;42.678;23.244;2023-01-25T03:03:05;95117.53;;;0.28;100.00
9277;BME280;4676;42.678;23.244;2023-01-25T03:05:32;95116.00;;;0.37;100.00
9277;BME280;4676;42.678;23.244;2023-01-25T03:07:58;95112.06;;;0.53;100.00
9277;BME280;4676;42.678;23.244;2023-01-25T03:10:25;95112.84;;;0.47;100.00
9277;BME280;4676;42.678;23.244;2023-01-25T03:12:52;95116.28;;;0.56;100.00
9277;BME280;4676;42.678;23.244;2023-01-25T03:15:20;95113.72;;;0.51;100.00
9277;BME280;4676;42.678;23.244;2023-01-25T03:17:47;95113.03;;;0.61;100.00
9277;BME280;4676;42.678;23.244;2023-01-25T03:20:14;95112.34;;;0.71;100.00
9277;BME280;4676;42.678;23.244;2023-01-25T03:22:42;95110.53;;;0.61;100.00
9277;BME280;4676;42.678;23.244;2023-01-25T03:25:09;95113.75;;;0.54;100.00
9277;BME280;4676;42.678;23.244;2023-01-25T03:27:35;95108.00;;;0.58;100.00
9277;BME280;4676;42.678;23.244;2023-01-25T03:30:02;95111.38;;;0.62;100.00
9277;BME280;4676;42.678;23.244;2023-01-25T03:32:31;95113.91;;;0.63;100.00
9277;BME280;4676;42.678;23.244;2023-01-25T03:34:58;95108.97;;;0.68;100.00
9277;BME280;4676;42.678;23.244;2023-01-25T03:37:24;95116.47;;;0.69;100.00
9277;BME280;4676;42.678;23.244;2023-01-25T03:39:54;95116.59;;;0.78;100.00
9277;BME280;4676;42.678;23.244;2023-01-25T03:42:21;95111.69;;;0.86;100.00
9277;BME280;4676;42.678;23.244;2023-01-25T03:44:48;95070.59;;;0.58;100.00
9277;BME280;4676;42.678;23.244;2023-01-25T03:47:15;95102.50;;;0.82;100.00
9277;BME280;4676;42.678;23.244;2023-01-25T03:49:43;95105.81;;;0.79;100.00
9277;BME280;4676;42.678;23.244;2023-01-25T03:52:09;95075.66;;;0.63;100.00
9277;BME280;4676;42.678;23.244;2023-01-25T03:54:36;95098.97;;;0.68;100.00
9277;BME280;4676;42.678;23.244;2023-01-25T03:57:03;95099.78;;;0.65;100.00
9277;BME280;4676;42.678;23.244;2023-01-25T03:59:29;95103.19;;;0.70;100.00
9277;BME280;4676;42.678;23.244;2023-01-25T04:01:56;95096.44;;;0.63;100.00
9277;BME280;4676;42.678;23.244;2023-01-25T04:04:23;95091.47;;;0.63;100.00
9277;BME280;4676;42.678;23.244;2023-01-25T04:06:51;95100.69;;;0.70;100.00
9277;BME280;4676;42.678;23.244;2023-01-25T04:09:18;95093.28;;;0.76;100.00
9277;BME280;4676;42.678;23.244;2023-01-25T04:11:48;95097.75;;;0.98;100.00
9277;BME280;4676;42.678;23.244;2023-01-25T04:14:14;95098.53;;;0.96;100.00
9277;BME280;4676;42.678;23.244;2023-01-25T04:16:41;95095.25;;;0.98;100.00
9277;BME280;4676;42.678;23.244;2023-01-25T04:19:08;95087.53;;;0.80;100.00
9277;BME280;4676;42.678;23.244;2023-01-25T04:21:34;95095.13;;;0.89;100.00
9277;BME280;4676;42.678;23.244;2023-01-25T04:24:03;95087.63;;;0.89;100.00
9277;BME280;4676;42.678;23.244;2023-01-25T04:26:30;95085.88;;;0.82;100.00
9277;BME280;4676;42.678;23.244;2023-01-25T04:28:56;95090.00;;;0.79;100.00
9277;BME280;4676;42.678;23.244;2023-01-25T04:31:23;95094.19;;;0.83;100.00
9277;BME280;4676;42.678;23.244;2023-01-25T04:33:50;95094.13;;;0.78;100.00
9277;BME280;4676;42.678;23.244;2023-01-25T04:36:17;95100.00;;;0.80;100.00
9277;BME280;4676;42.678;23.244;2023-01-25T04:38:43;95100.84;;;0.82;100.00
9277;BME280;4676;42.678;23.244;2023-01-25T04:41:11;95079.88;;;0.67;100.00
9277;BME280;4676;42.678;23.244;2023-01-25T04:43:38;95106.66;;;0.80;100.00
9277;BME280;4676;42.678;23.244;2023-01-25T04:46:05;95104.34;;;0.95;100.00
9277;BME280;4676;42.678;23.244;2023-01-25T04:48:31;95101.78;;;0.92;100.00
9277;BME280;4676;42.678;23.244;2023-01-25T04:50:58;95100.91;;;0.87;100.00
9277;BME280;4676;42.678;23.244;2023-01-25T04:53:25;95105.88;;;0.84;100.00
9277;BME280;4676;42.678;23.244;2023-01-25T04:55:51;95099.28;;;0.92;100.00
9277;BME280;4676;42.678;23.244;2023-01-25T04:58:22;95106.72;;;0.86;100.00
9277;BME280;4676;42.678;23.244;2023-01-25T05:00:49;95103.44;;;0.90;100.00
9277;BME280;4676;42.678;23.244;2023-01-25T05:03:16;95095.84;;;0.82;100.00
9277;BME280;4676;42.678;23.244;2023-01-25T05:05:45;95100.06;;;0.86;100.00
9277;BME280;4676;42.678;23.244;2023-01-25T05:08:12;95100.13;;;0.92;100.00
9277;BME280;4676;42.678;23.244;2023-01-25T05:10:39;95097.69;;;0.95;100.00
9277;BME280;4676;42.678;23.244;2023-01-25T05:13:05;95097.75;;;1.00;100.00
9277;BME280;4676;42.678;23.244;2023-01-25T05:15:34;95101.94;;;1.01;100.00
9277;BME280;4676;42.678;23.244;2023-01-25T05:18:00;95092.78;;;1.02;100.00
9277;BME280;4676;42.678;23.244;2023-01-25T05:20:27;95095.25;;;0.98;100.00
9277;BME280;4676;42.678;23.244;2023-01-25T05:22:54;95090.34;;;1.08;100.00
9277;BME280;4676;42.678;23.244;2023-01-25T05:25:20;95089.31;;;0.92;100.00
9277;BME280;4676;42.678;23.244;2023-01-25T05:28:05;95099.41;;;0.99;100.00
9277;BME280;4676;42.678;23.244;2023-01-25T05:30:34;95102.00;;;1.07;100.00
9277;BME280;4676;42.678;23.244;2023-01-25T05:33:01;95082.78;;;0.98;100.00
9277;BME280;4676;42.678;23.244;2023-01-25T05:35:28;95083.75;;;1.13;100.00
9277;BME280;4676;42.678;23.244;2023-01-25T05:37:58;95061.19;;;1.04;100.00
9277;BME280;4676;42.678;23.244;2023-01-25T05:40:25;95096.38;;;1.25;100.00
9277;BME280;4676;42.678;23.244;2023-01-25T05:42:53;95093.94;;;1.29;100.00
9277;BME280;4676;42.678;23.244;2023-01-25T05:45:20;95090.59;;;1.29;100.00
9277;BME280;4676;42.678;23.244;2023-01-25T05:47:52;95098.97;;;1.32;100.00
9277;BME280;4676;42.678;23.244;2023-01-25T05:50:19;95098.22;;;1.39;100.00
9277;BME280;4676;42.678;23.244;2023-01-25T05:52:46;95095.75;;;1.42;100.00
9277;BME280;4676;42.678;23.244;2023-01-25T05:55:13;95099.97;;;1.49;100.00
9277;BME280;4676;42.678;23.244;2023-01-25T05:57:39;95094.06;;;1.41;100.00
9277;BME280;4676;42.678;23.244;2023-01-25T06:00:07;95093.34;;;1.50;100.00
9277;BME280;4676;42.678;23.244;2023-01-25T06:02:34;95099.16;;;1.52;100.00
9277;BME280;4676;42.678;23.244;2023-01-25T06:05:02;95100.81;;;1.50;100.00
9277;BME280;4676;42.678;23.244;2023-01-25T06:07:32;95109.94;;;1.46;100.00
9277;BME280;4676;42.678;23.244;2023-01-25T06:10:00;95099.28;;;1.61;100.00
9277;BME280;4676;42.678;23.244;2023-01-25T06:12:27;95087.56;;;1.57;100.00
9277;BME280;4676;42.678;23.244;2023-01-25T06:14:53;95103.50;;;1.70;100.00
9277;BME280;4676;42.678;23.244;2023-01-25T06:17:20;95103.47;;;1.64;100.00
9277;BME280;4676;42.678;23.244;2023-01-25T06:19:47;95111.78;;;1.64;100.00
9277;BME280;4676;42.678;23.244;2023-01-25T06:22:15;95109.44;;;1.78;100.00
9277;BME280;4676;42.678;23.244;2023-01-25T06:24:41;95041.50;;;1.31;100.00
9277;BME280;4676;42.678;23.244;2023-01-25T06:27:08;95101.84;;;1.70;100.00
9277;BME280;4676;42.678;23.244;2023-01-25T06:29:36;95106.91;;;1.75;100.00
9277;BME280;4676;42.678;23.244;2023-01-25T06:32:03;95101.09;;;1.76;100.00
9277;BME280;4676;42.678;23.244;2023-01-25T06:34:30;95101.97;;;1.79;100.00
9277;BME280;4676;42.678;23.244;2023-01-25T06:36:57;95104.38;;;1.72;100.00
9277;BME280;4676;42.678;23.244;2023-01-25T06:39:25;95103.59;;;1.76;100.00
9277;BME280;4676;42.678;23.244;2023-01-25T06:41:54;95103.50;;;1.70;100.00
9277;BME280;4676;42.678;23.244;2023-01-25T06:44:21;95106.09;;;1.76;100.00
9277;BME280;4676;42.678;23.244;2023-01-25T06:46:47;95097.78;;;1.80;100.00
9277;BME280;4676;42.678;23.244;2023-01-25T06:49:14;95101.13;;;1.79;100.00
9277;BME280;4676;42.678;23.244;2023-01-25T06:51:41;95098.59;;;1.76;100.00
9277;BME280;4676;42.678;23.244;2023-01-25T06:54:07;95102.78;;;1.81;100.00
9277;BME280;4676;42.678;23.244;2023-01-25T06:56:35;95061.84;;;1.64;100.00
9277;BME280;4676;42.678;23.244;2023-01-25T06:59:02;95096.97;;;1.84;100.00
9277;BME280;4676;42.678;23.244;2023-01-25T07:01:29;95097.88;;;1.90;100.00
9277;BME280;4676;42.678;23.244;2023-01-25T07:03:57;95100.38;;;1.89;100.00
9277;BME280;4676;42.678;23.244;2023-01-25T07:06:25;95092.00;;;1.85;100.00
9277;BME280;4676;42.678;23.244;2023-01-25T07:08:52;95095.31;;;1.84;100.00
9277;BME280;4676;42.678;23.244;2023-01-25T07:11:19;95101.22;;;1.91;100.00
9277;BME280;4676;42.678;23.244;2023-01-25T07:13:47;95092.00;;;1.87;100.00
9277;BME280;4676;42.678;23.244;2023-01-25T07:16:16;95097.00;;;1.82;100.00
9277;BME280;4676;42.678;23.244;2023-01-25T07:18:44;95088.59;;;1.76;100.00
9277;BME280;4676;42.678;23.244;2023-01-25T07:21:12;95100.28;;;1.81;100.00
9277;BME280;4676;42.678;23.244;2023-01-25T07:23:40;95102.66;;;1.65;100.00
9277;BME280;4676;42.678;23.244;2023-01-25T07:26:13;95106.88;;;1.72;100.00
9277;BME280;4676;42.678;23.244;2023-01-25T07:28:40;95106.09;;;1.80;100.00
9277;BME280;4676;42.678;23.244;2023-01-25T07:31:09;95106.97;;;1.82;100.00
9277;BME280;4676;42.678;23.244;2023-01-25T07:33:35;95110.28;;;1.80;100.00
9277;BME280;4676;42.678;23.244;2023-01-25T07:36:04;95103.59;;;1.76;100.00
9277;BME280;4676;42.678;23.244;2023-01-25T07:38:31;95110.88;;;1.55;100.00
9277;BME280;4676;42.678;23.244;2023-01-25T07:40:58;95122.59;;;1.62;100.00
9277;BME280;4676;42.678;23.244;2023-01-25T07:43:25;95122.75;;;1.75;100.00
9277;BME280;4676;42.678;23.244;2023-01-25T07:45:52;95119.31;;;1.67;100.00
9277;BME280;4676;42.678;23.244;2023-01-25T07:48:20;95121.72;;;1.58;100.00
9277;BME280;4676;42.678;23.244;2023-01-25T07:50:47;95119.88;;;1.42;100.00
9277;BME280;4676;42.678;23.244;2023-01-25T07:53:34;95121.53;;;1.41;100.00
9277;BME280;4676;42.678;23.244;2023-01-25T07:56:01;95125.69;;;1.41;100.00
9277;BME280;4676;42.678;23.244;2023-01-25T07:58:28;95121.56;;;1.43;100.00
9277;BME280;4676;42.678;23.244;2023-01-25T08:00:55;95119.91;;;1.45;100.00
9277;BME280;4676;42.678;23.244;2023-01-25T08:03:23;95117.41;;;1.45;100.00
9277;BME280;4676;42.678;23.244;2023-01-25T08:05:49;95112.44;;;1.46;100.00
9277;BME280;4676;42.678;23.244;2023-01-25T08:08:16;95119.00;;;1.37;100.00
9277;BME280;4676;42.678;23.244;2023-01-25T08:10:43;95116.41;;;1.31;100.00
9277;BME280;4676;42.678;23.244;2023-01-25T08:13:09;95119.53;;;1.13;100.00
9277;BME280;4676;42.678;23.244;2023-01-25T08:15:36;95100.16;;;0.94;100.00
9277;BME280;4676;42.678;23.244;2023-01-25T08:18:03;95117.88;;;1.12;100.00
9277;BME280;4676;42.678;23.244;2023-01-25T08:20:31;95119.50;;;1.09;100.00
9277;BME280;4676;42.678;23.244;2023-01-25T08:22:58;95113.59;;;1.04;100.00
9277;BME280;4676;42.678;23.244;2023-01-25T08:25:25;95097.59;;;0.89;100.00
9277;BME280;4676;42.678;23.244;2023-01-25T08:27:52;95117.53;;;0.86;100.00
9277;BME280;4676;42.678;23.244;2023-01-25T08:30:19;95113.47;;;0.91;100.00
9277;BME280;4676;42.678;23.244;2023-01-25T08:32:46;95108.56;;;1.00;100.00
9277;BME280;4676;42.678;23.244;2023-01-25T08:35:13;95115.09;;;0.91;100.00
9277;BME280;4676;42.678;23.244;2023-01-25T08:37:41;95111.09;;;1.02;100.00
9277;BME280;4676;42.678;23.244;2023-01-25T08:40:09;95111.28;;;1.19;100.00
9277;BME280;4676;42.678;23.244;2023-01-25T08:42:38;95110.59;;;1.32;100.00
9277;BME280;4676;42.678;23.244;2023-01-25T08:45:08;95106.63;;;1.49;100.00
9277;BME280;4676;42.678;23.244;2023-01-25T08:47:35;95109.00;;;1.38;100.00
9277;BME280;4676;42.678;23.244;2023-01-25T08:50:02;95104.06;;;1.43;100.00
9277;BME280;4676;42.678;23.244;2023-01-25T08:52:29;95094.28;;;1.63;100.00
9277;BME280;4676;42.678;23.244;2023-01-25T08:54:57;95093.53;;;1.71;100.00
9277;BME280;4676;42.678;23.244;2023-01-25T08:57:24;95097.53;;;1.54;100.00
9277;BME280;4676;42.678;23.244;2023-01-25T08:59:50;95108.28;;;1.47;100.00
9277;BME280;4676;42.678;23.244;2023-01-25T09:02:17;95103.91;;;1.26;100.00
9277;BME280;4676;42.678;23.244;2023-01-25T09:04:45;95102.13;;;1.18;100.00
9277;BME280;4676;42.678;23.244;2023-01-25T09:07:12;95114.53;;;1.12;100.00
9277;BME280;4676;42.678;23.244;2023-01-25T09:09:39;95111.84;;;0.96;100.00
9277;BME280;4676;42.678;23.244;2023-01-25T09:12:07;95115.25;;;1.03;100.00
9277;BME280;4676;42.678;23.244;2023-01-25T09:14:34;95110.25;;;1.02;100.00
9277;BME280;4676;42.678;23.244;2023-01-25T09:17:04;95104.28;;;0.92;100.00
9277;BME280;4676;42.678;23.244;2023-01-25T09:19:31;95104.53;;;1.10;100.00
9277;BME280;4676;42.678;23.244;2023-01-25T09:21:58;95092.84;;;1.08;100.00
9277;BME280;4676;42.678;23.244;2023-01-25T09:24:24;95095.19;;;0.95;100.00
9277;BME280;4676;42.678;23.244;2023-01-25T09:26:51;95097.03;;;1.10;100.00
9277;BME280;4676;42.678;23.244;2023-01-25T09:29:19;95088.94;;;1.29;100.00
9277;BME280;4676;42.678;23.244;2023-01-25T09:31:46;95089.69;;;1.22;100.00
9277;BME280;4676;42.678;23.244;2023-01-25T09:34:13;95075.53;;;1.21;100.00
9277;BME280;4676;42.678;23.244;2023-01-25T09:36:40;95077.25;;;1.25;100.00
9277;BME280;4676;42.678;23.244;2023-01-25T09:39:08;95035.34;;;0.98;100.00
9277;BME280;4676;42.678;23.244;2023-01-25T09:42:02;95068.81;;;1.17;100.00
9277;BME280;4676;42.678;23.244;2023-01-25T09:44:53;95041.44;;;1.25;100.00
9277;BME280;4676;42.678;23.244;2023-01-25T09:47:28;95053.41;;;1.56;100.00
9277;BME280;4676;42.678;23.244;2023-01-25T09:50:10;95049.44;;;1.75;100.00
9277;BME280;4676;42.678;23.244;2023-01-25T09:53:01;95033.72;;;1.88;100.00
9277;BME280;4676;42.678;23.244;2023-01-25T09:55:31;95042.97;;;1.96;100.00
9277;BME280;4676;42.678;23.244;2023-01-25T09:58:00;95039.75;;;2.16;100.00
9277;BME280;4676;42.678;23.244;2023-01-25T10:00:33;95036.47;;;2.21;100.00
9277;BME280;4676;42.678;23.244;2023-01-25T10:03:04;95031.41;;;2.15;100.00
9277;BME280;4676;42.678;23.244;2023-01-25T10:05:41;95028.88;;;2.09;100.00
9277;BME280;4676;42.678;23.244;2023-01-25T10:08:16;95014.44;;;1.73;100.00
9277;BME280;4676;42.678;23.244;2023-01-25T10:10:47;95026.97;;;1.78;100.00
9277;BME280;4676;42.678;23.244;2023-01-25T10:13:22;95019.53;;;1.85;100.00
9277;BME280;4676;42.678;23.244;2023-01-25T10:15:52;94978.59;;;1.68;100.00
9277;BME280;4676;42.678;23.244;2023-01-25T10:18:27;95014.53;;;1.85;100.00
9277;BME280;4676;42.678;23.244;2023-01-25T10:20:58;95006.13;;;1.74;100.00
9277;BME280;4676;42.678;23.244;2023-01-25T10:23:56;94998.50;;;1.62;100.00
9277;BME280;4676;42.678;23.244;2023-01-25T10:26:30;94999.47;;;1.78;100.00
9277;BME280;4676;42.678;23.244;2023-01-25T10:29:02;94999.59;;;1.94;100.00
9277;BME280;4676;42.678;23.244;2023-01-25T10:31:37;95002.97;;;1.98;100.00
9277;BME280;4676;42.678;23.244;2023-01-25T10:34:15;94998.84;;;2.06;100.00
9277;BME280;4676;42.678;23.244;2023-01-25T10:36:45;94990.53;;;2.09;100.00
9277;BME280;4676;42.678;23.244;2023-01-25T10:39:14;94984.59;;;1.93;100.00
9277;BME280;4676;42.678;23.244;2023-01-25T10:41:43;94982.94;;;1.93;100.00
9277;BME280;4676;42.678;23.244;2023-01-25T10:44:12;94981.19;;;1.83;100.00
9277;BME280;4676;42.678;23.244;2023-01-25T10:46:55;94973.72;;;1.85;100.00
9277;BME280;4676;42.678;23.244;2023-01-25T10:49:28;94969.66;;;2.00;100.00
9277;BME280;4676;42.678;23.244;2023-01-25T10:52:11;94962.78;;;1.71;100.00
9277;BME280;4676;42.678;23.244;2023-01-25T10:54:38;94967.81;;;1.75;100.00
9277;BME280;4676;42.678;23.244;2023-01-25T10:57:05;94959.56;;;1.88;100.00
9277;BME280;4676;42.678;23.244;2023-01-25T10:59:33;94957.19;;;2.07;100.00
9277;BME280;4676;42.678;23.244;2023-01-25T11:05:35;94944.72;;;2.13;100.00
9277;BME280;4676;42.678;23.244;2023-01-25T11:08:21;94927.28;;;2.26;100.00
9277;BME280;4676;42.678;23.244;2023-01-25T11:10:49;94928.97;;;2.29;100.00
9277;BME280;4676;42.678;23.244;2023-01-25T11:13:21;94951.41;;;2.15;100.00
9277;BME280;4676;42.678;23.244;2023-01-25T11:15:51;94948.03;;;2.09;100.00
9277;BME280;4676;42.678;23.244;2023-01-25T11:18:21;94939.69;;;2.00;100.00
9277;BME280;4676;42.678;23.244;2023-01-25T11:21:05;94893.78;;;1.89;100.00
9277;BME280;4676;42.678;23.244;2023-01-25T11:23:32;94929.78;;;2.20;100.00
9277;BME280;4676;42.678;23.244;2023-01-25T11:26:11;94918.16;;;2.33;100.00
9277;BME280;4676;42.678;23.244;2023-01-25T11:28:38;94930.75;;;2.53;100.00
9277;BME280;4676;42.678;23.244;2023-01-25T11:31:08;94925.78;;;2.63;100.00
9277;BME280;4676;42.678;23.244;2023-01-25T11:33:36;94924.16;;;2.79;100.00
9277;BME280;4676;42.678;23.244;2023-01-25T11:36:15;94915.03;;;2.94;100.00
9277;BME280;4676;42.678;23.244;2023-01-25T11:38:54;94913.38;;;3.03;100.00
9277;BME280;4676;42.678;23.244;2023-01-25T11:41:28;94900.88;;;3.03;100.00
9277;BME280;4676;42.678;23.244;2023-01-25T11:44:09;94905.06;;;3.10;100.00
9277;BME280;4676;42.678;23.244;2023-01-25T11:46:50;94895.88;;;3.22;100.00
9277;BME280;4676;42.678;23.244;2023-01-25T11:49:40;94888.31;;;2.84;100.00
9277;BME280;4676;42.678;23.244;2023-01-25T11:52:22;94882.44;;;2.67;100.00
9277;BME280;4676;42.678;23.244;2023-01-25T11:54:59;94883.25;;;2.66;100.00
9277;BME280;4676;42.678;23.244;2023-01-25T11:57:43;94880.81;;;2.84;100.00
9277;BME280;4676;42.678;23.244;2023-01-25T12:00:29;94881.63;;;2.74;100.00
9277;BME280;4676;42.678;23.244;2023-01-25T12:06:02;94874.06;;;2.53;100.00
9277;BME280;4676;42.678;23.244;2023-01-25T12:08:47;94873.22;;;2.62;100.00
9277;BME280;4676;42.678;23.244;2023-01-25T12:11:33;94859.06;;;2.65;100.00
9277;BME280;4676;42.678;23.244;2023-01-25T12:14:09;94868.25;;;2.75;100.00
9277;BME280;4676;42.678;23.244;2023-01-25T12:16:56;94866.59;;;2.67;100.00
9277;BME280;4676;42.678;23.244;2023-01-25T12:19:41;94866.59;;;2.67;100.00
9277;BME280;4676;42.678;23.244;2023-01-25T12:22:33;94862.38;;;2.49;100.00
9277;BME280;4676;42.678;23.244;2023-01-25T12:25:18;94860.63;;;2.30;100.00
9277;BME280;4676;42.678;23.244;2023-01-25T12:28:00;94859.03;;;2.45;100.00
9277;BME280;4676;42.678;23.244;2023-01-25T12:30:42;94857.38;;;2.49;100.00
9277;BME280;4676;42.678;23.244;2023-01-25T12:33:14;94852.38;;;2.57;100.00
9277;BME280;4676;42.678;23.244;2023-01-25T12:35:45;94823.16;;;2.45;100.00
9277;BME280;4676;42.678;23.244;2023-01-25T12:38:18;94849.06;;;2.68;100.00
9277;BME280;4676;42.678;23.244;2023-01-25T12:40:53;94843.25;;;2.77;100.00
9277;BME280;4676;42.678;23.244;2023-01-25T12:43:27;94847.41;;;2.82;100.00
9277;BME280;4676;42.678;23.244;2023-01-25T12:45:56;94842.44;;;2.88;100.00
9277;BME280;4676;42.678;23.244;2023-01-25T12:48:26;94841.59;;;2.91;100.00
9277;BME280;4676;42.678;23.244;2023-01-25T12:50:56;94834.88;;;2.75;100.00
9277;BME280;4676;42.678;23.244;2023-01-25T12:53:26;94834.03;;;2.68;100.00
9277;BME280;4676;42.678;23.244;2023-01-25T12:55:57;94836.53;;;2.55;100.00
9277;BME280;4676;42.678;23.244;2023-01-25T12:58:31;94841.53;;;2.51;100.00
9277;BME280;4676;42.678;23.244;2023-01-25T13:01:03;94835.63;;;2.36;100.00
9277;BME280;4676;42.678;23.244;2023-01-25T13:03:48;94838.09;;;2.21;100.00
9277;BME280;4676;42.678;23.244;2023-01-25T13:06:25;94828.09;;;2.27;100.00
9277;BME280;4676;42.678;23.244;2023-01-25T13:09:00;94822.25;;;2.17;100.00
9277;BME280;4676;42.678;23.244;2023-01-25T13:11:36;94805.53;;;2.03;100.00
9277;BME280;4676;42.678;23.244;2023-01-25T13:14:37;94815.50;;;1.98;100.00
9277;BME280;4676;42.678;23.244;2023-01-25T13:17:19;94815.53;;;1.99;100.00
9277;BME280;4676;42.678;23.244;2023-01-25T13:19:47;94811.38;;;2.12;100.00
9277;BME280;4676;42.678;23.244;2023-01-25T13:22:59;94815.59;;;2.21;100.00
9277;BME280;4676;42.678;23.244;2023-01-25T13:25:25;94813.94;;;2.33;100.00
9277;BME280;4676;42.678;23.244;2023-01-25T13:28:39;94811.47;;;2.41;100.00
9277;BME280;4676;42.678;23.244;2023-01-25T13:31:06;94806.47;;;2.47;100.00
9277;BME280;4676;42.678;23.244;2023-01-25T13:33:34;94812.31;;;2.47;100.00